sensor_id;sensor_type;location;lat;lon;timestamp;temperature;humidity
79026;DHT22;74892;44.760;37.726;2024-01-25T03:23:26;7.19;67.85
79026;DHT22;74892;44.760;37.726;2024-01-25T03:24:28;7.20;67.80
79026;DHT22;74892;44.760;37.726;2024-01-25T03:25:30;7.22;67.88
79026;DHT22;74892;44.760;37.726;2024-01-25T03:26:33;7.23;67.84
79026;DHT22;74892;44.760;37.726;2024-01-25T03:27:35;7.24;67.91
79026;DHT22;74892;44.760;37.726;2024-01-25T03:28:37;7.25;67.66
79026;DHT22;74892;44.760;37.726;2024-01-25T03:29:46;7.25;67.78
79026;DHT22;74892;44.760;37.726;2024-01-25T03:30:53;7.25;67.84
79026;DHT22;74892;44.760;37.726;2024-01-25T03:32:07;7.26;67.92
79026;DHT22;74892;44.760;37.726;2024-01-25T03:33:09;7.28;67.96
79026;DHT22;74892;44.760;37.726;2024-01-25T03:36:42;7.26;68.10
79026;DHT22;74892;44.760;37.726;2024-01-25T03:37:48;7.27;68.17
79026;DHT22;74892;44.760;37.726;2024-01-25T03:38:52;7.27;68.24
79026;DHT22;74892;44.760;37.726;2024-01-25T03:39:54;7.29;68.20
79026;DHT22;74892;44.760;37.726;2024-01-25T03:40:57;7.27;68.17
79026;DHT22;74892;44.760;37.726;2024-01-25T03:43:52;7.25;67.98
79026;DHT22;74892;44.760;37.726;2024-01-25T03:44:59;7.26;67.86
79026;DHT22;74892;44.760;37.726;2024-01-25T03:46:01;7.26;67.72
79026;DHT22;74892;44.760;37.726;2024-01-25T03:47:06;7.32;67.56
79026;DHT22;74892;44.760;37.726;2024-01-25T03:48:11;7.34;67.55
79026;DHT22;74892;44.760;37.726;2024-01-25T03:49:13;7.34;67.46
79026;DHT22;74892;44.760;37.726;2024-01-25T03:50:18;7.37;67.43
79026;DHT22;74892;44.760;37.726;2024-01-25T03:51:20;7.37;67.46
79026;DHT22;74892;44.760;37.726;2024-01-25T03:56:22;7.34;66.78
79026;DHT22;74892;44.760;37.726;2024-01-25T03:57:24;7.35;66.76
79026;DHT22;74892;44.760;37.726;2024-01-25T03:58:26;7.37;66.71
79026;DHT22;74892;44.760;37.726;2024-01-25T04:21:20;7.22;67.00
79026;DHT22;74892;44.760;37.726;2024-01-25T04:22:24;7.20;66.88
79026;DHT22;74892;44.760;37.726;2024-01-25T04:23:29;7.23;66.94
79026;DHT22;74892;44.760;37.726;2024-01-25T04:24:31;7.23;66.70
79026;DHT22;74892;44.760;37.726;2024-01-25T04:25:33;7.24;66.85
79026;DHT22;74892;44.760;37.726;2024-01-25T04:26:35;7.28;66.83
79026;DHT22;74892;44.760;37.726;2024-01-25T04:27:37;7.26;66.65
79026;DHT22;74892;44.760;37.726;2024-01-25T04:28:43;7.27;66.78
79026;DHT22;74892;44.760;37.726;2024-01-25T04:29:45;7.27;66.67
79026;DHT22;74892;44.760;37.726;2024-01-25T04:30:47;7.28;66.54
79026;DHT22;74892;44.760;37.726;2024-01-25T04:31:52;7.27;66.36
79026;DHT22;74892;44.760;37.726;2024-01-25T04:32:54;7.24;66.24
79026;DHT22;74892;44.760;37.726;2024-01-25T04:33:56;7.27;66.34
79026;DHT22;74892;44.760;37.726;2024-01-25T04:34:58;7.26;66.40
79026;DHT22;74892;44.760;37.726;2024-01-25T04:36:00;7.27;66.69
79026;DHT22;74892;44.760;37.726;2024-01-25T04:37:02;7.23;66.88
79026;DHT22;74892;44.760;37.726;2024-01-25T04:38:06;7.22;67.04
79026;DHT22;74892;44.760;37.726;2024-01-25T04:39:08;7.23;66.94
79026;DHT22;74892;44.760;37.726;2024-01-25T04:40:10;7.26;66.92
79026;DHT22;74892;44.760;37.726;2024-01-25T04:41:14;7.24;67.12
79026;DHT22;74892;44.760;37.726;2024-01-25T04:42:22;7.22;67.33
79026;DHT22;74892;44.760;37.726;2024-01-25T04:43:26;7.23;67.53
79026;DHT22;74892;44.760;37.726;2024-01-25T04:44:34;7.22;67.33
79026;DHT22;74892;44.760;37.726;2024-01-25T04:45:37;7.26;67.46
79026;DHT22;74892;44.760;37.726;2024-01-25T04:46:47;7.22;67.65
79026;DHT22;74892;44.760;37.726;2024-01-25T04:47:49;7.19;68.13
79026;DHT22;74892;44.760;37.726;2024-01-25T04:48:59;7.16;68.26
79026;DHT22;74892;44.760;37.726;2024-01-25T04:50:07;7.15;68.52
79026;DHT22;74892;44.760;37.726;2024-01-25T04:51:17;7.14;68.87
79026;DHT22;74892;44.760;37.726;2024-01-25T04:52:19;7.09;69.01
79026;DHT22;74892;44.760;37.726;2024-01-25T04:53:31;7.11;69.00
79026;DHT22;74892;44.760;37.726;2024-01-25T04:54:49;7.09;69.10
79026;DHT22;74892;44.760;37.726;2024-01-25T04:55:58;7.05;69.16
79026;DHT22;74892;44.760;37.726;2024-01-25T04:57:05;7.07;69.19
79026;DHT22;74892;44.760;37.726;2024-01-25T04:58:11;7.09;69.07
79026;DHT22;74892;44.760;37.726;2024-01-25T04:59:21;7.08;69.05
79026;DHT22;74892;44.760;37.726;2024-01-25T05:00:33;7.09;69.09
79026;DHT22;74892;44.760;37.726;2024-01-25T05:01:47;7.09;69.19
79026;DHT22;74892;44.760;37.726;2024-01-25T05:03:03;7.05;69.04
79026;DHT22;74892;44.760;37.726;2024-01-25T05:04:05;7.07;69.09
79026;DHT22;74892;44.760;37.726;2024-01-25T05:05:09;7.05;68.97
79026;DHT22;74892;44.760;37.726;2024-01-25T05:06:14;7.07;68.99
79026;DHT22;74892;44.760;37.726;2024-01-25T05:07:16;7.08;68.80
79026;DHT22;74892;44.760;37.726;2024-01-25T05:08:21;7.10;68.74
79026;DHT22;74892;44.760;37.726;2024-01-25T05:09:23;7.10;68.68
79026;DHT22;74892;44.760;37.726;2024-01-25T05:10:28;7.10;68.75
79026;DHT22;74892;44.760;37.726;2024-01-25T05:11:39;7.14;68.71
79026;DHT22;74892;44.760;37.726;2024-01-25T05:12:47;7.19;68.73
79026;DHT22;74892;44.760;37.726;2024-01-25T05:13:51;7.16;68.68
79026;DHT22;74892;44.760;37.726;2024-01-25T05:14:54;7.23;68.64
79026;DHT22;74892;44.760;37.726;2024-01-25T05:15:58;7.23;68.61
79026;DHT22;74892;44.760;37.726;2024-01-25T05:17:00;7.23;68.63
79026;DHT22;74892;44.760;37.726;2024-01-25T05:18:09;7.26;68.66
79026;DHT22;74892;44.760;37.726;2024-01-25T05:19:19;7.26;68.47
79026;DHT22;74892;44.760;37.726;2024-01-25T05:20:25;7.28;68.58
79026;DHT22;74892;44.760;37.726;2024-01-25T05:21:34;7.29;68.53
79026;DHT22;74892;44.760;37.726;2024-01-25T05:22:39;7.32;68.18
79026;DHT22;74892;44.760;37.726;2024-01-25T05:23:56;7.31;68.17
79026;DHT22;74892;44.760;37.726;2024-01-25T05:25:01;7.32;68.18
79026;DHT22;74892;44.760;37.726;2024-01-25T05:26:06;7.33;68.21
79026;DHT22;74892;44.760;37.726;2024-01-25T05:27:13;7.31;68.17
79026;DHT22;74892;44.760;37.726;2024-01-25T05:28:20;7.37;68.29
79026;DHT22;74892;44.760;37.726;2024-01-25T05:29:48;7.35;68.55
79026;DHT22;74892;44.760;37.726;2024-01-25T05:30:55;7.34;68.62
79026;DHT22;74892;44.760;37.726;2024-01-25T05:32:00;7.35;68.60
79026;DHT22;74892;44.760;37.726;2024-01-25T05:33:08;7.37;68.66
79026;DHT22;74892;44.760;37.726;2024-01-25T05:34:15;7.35;68.60
79026;DHT22;74892;44.760;37.726;2024-01-25T05:35:22;7.40;68.62
79026;DHT22;74892;44.760;37.726;2024-01-25T05:36:28;7.40;68.63
79026;DHT22;74892;44.760;37.726;2024-01-25T05:37:30;7.45;68.49
79026;DHT22;74892;44.760;37.726;2024-01-25T05:38:32;7.45;68.57
79026;DHT22;74892;44.760;37.726;2024-01-25T05:39:36;7.44;68.52
79026;DHT22;74892;44.760;37.726;2024-01-25T05:40:43;7.47;68.36
79026;DHT22;74892;44.760;37.726;2024-01-25T05:41:47;7.49;68.49
79026;DHT22;74892;44.760;37.726;2024-01-25T05:42:59;7.53;68.53
79026;DHT22;74892;44.760;37.726;2024-01-25T05:44:04;7.54;68.66
79026;DHT22;74892;44.760;37.726;2024-01-25T05:45:07;7.57;68.70
79026;DHT22;74892;44.760;37.726;2024-01-25T05:46:12;7.59;68.64
79026;DHT22;74892;44.760;37.726;2024-01-25T05:47:17;7.58;68.58
79026;DHT22;74892;44.760;37.726;2024-01-25T05:48:22;7.61;68.50
79026;DHT22;74892;44.760;37.726;2024-01-25T05:49:24;7.63;68.42
79026;DHT22;74892;44.760;37.726;2024-01-25T05:50:31;7.69;68.40
79026;DHT22;74892;44.760;37.726;2024-01-25T05:51:42;7.68;68.34
79026;DHT22;74892;44.760;37.726;2024-01-25T05:52:46;7.70;68.12
79026;DHT22;74892;44.760;37.726;2024-01-25T05:53:48;7.74;68.07
79026;DHT22;74892;44.760;37.726;2024-01-25T05:54:55;7.74;68.17
79026;DHT22;74892;44.760;37.726;2024-01-25T05:55:59;7.75;68.01
79026;DHT22;74892;44.760;37.726;2024-01-25T05:57:16;7.76;67.97
79026;DHT22;74892;44.760;37.726;2024-01-25T05:58:31;7.77;67.59
79026;DHT22;74892;44.760;37.726;2024-01-25T05:59:43;7.79;67.80
79026;DHT22;74892;44.760;37.726;2024-01-25T06:01:16;7.74;67.53
79026;DHT22;74892;44.760;37.726;2024-01-25T06:02:21;7.74;67.72
79026;DHT22;74892;44.760;37.726;2024-01-25T06:03:32;7.77;67.73
79026;DHT22;74892;44.760;37.726;2024-01-25T06:04:37;7.78;67.59
79026;DHT22;74892;44.760;37.726;2024-01-25T06:05:41;7.78;67.24
79026;DHT22;74892;44.760;37.726;2024-01-25T06:06:54;7.84;67.49
79026;DHT22;74892;44.760;37.726;2024-01-25T06:08:07;7.87;66.88
79026;DHT22;74892;44.760;37.726;2024-01-25T06:09:19;7.89;67.07
79026;DHT22;74892;44.760;37.726;2024-01-25T06:10:21;7.90;66.81
79026;DHT22;74892;44.760;37.726;2024-01-25T06:11:26;7.91;66.60
79026;DHT22;74892;44.760;37.726;2024-01-25T06:12:28;7.92;66.33
79026;DHT22;74892;44.760;37.726;2024-01-25T06:13:31;7.97;66.46
79026;DHT22;74892;44.760;37.726;2024-01-25T06:14:33;7.99;66.51
79026;DHT22;74892;44.760;37.726;2024-01-25T06:15:45;8.00;66.70
79026;DHT22;74892;44.760;37.726;2024-01-25T06:16:54;8.01;66.63
79026;DHT22;74892;44.760;37.726;2024-01-25T06:17:57;7.99;66.53
79026;DHT22;74892;44.760;37.726;2024-01-25T06:19:05;7.99;66.72
79026;DHT22;74892;44.760;37.726;2024-01-25T06:20:07;7.99;66.69
79026;DHT22;74892;44.760;37.726;2024-01-25T06:21:12;7.97;66.71
79026;DHT22;74892;44.760;37.726;2024-01-25T06:22:17;8.00;67.14
79026;DHT22;74892;44.760;37.726;2024-01-25T06:23:23;8.02;66.90
79026;DHT22;74892;44.760;37.726;2024-01-25T06:24:25;8.03;66.75
79026;DHT22;74892;44.760;37.726;2024-01-25T06:25:42;8.06;66.77
79026;DHT22;74892;44.760;37.726;2024-01-25T06:26:44;8.09;66.63
79026;DHT22;74892;44.760;37.726;2024-01-25T06:27:48;8.11;66.69
79026;DHT22;74892;44.760;37.726;2024-01-25T06:28:53;8.14;66.81
79026;DHT22;74892;44.760;37.726;2024-01-25T06:29:57;8.18;66.52
79026;DHT22;74892;44.760;37.726;2024-01-25T06:31:08;8.18;66.49
79026;DHT22;74892;44.760;37.726;2024-01-25T06:32:12;8.21;66.39
79026;DHT22;74892;44.760;37.726;2024-01-25T06:33:18;8.21;66.45
79026;DHT22;74892;44.760;37.726;2024-01-25T06:34:32;8.24;66.56
79026;DHT22;74892;44.760;37.726;2024-01-25T06:35:34;8.24;65.93
79026;DHT22;74892;44.760;37.726;2024-01-25T06:36:38;8.22;66.14
79026;DHT22;74892;44.760;37.726;2024-01-25T06:37:48;8.27;65.78
79026;DHT22;74892;44.760;37.726;2024-01-25T06:38:55;8.26;66.35
79026;DHT22;74892;44.760;37.726;2024-01-25T06:39:57;8.28;65.87
79026;DHT22;74892;44.760;37.726;2024-01-25T06:41:09;8.30;65.98
79026;DHT22;74892;44.760;37.726;2024-01-25T06:42:13;8.28;66.08
79026;DHT22;74892;44.760;37.726;2024-01-25T06:43:15;8.23;66.31
79026;DHT22;74892;44.760;37.726;2024-01-25T06:44:25;8.21;66.43
79026;DHT22;74892;44.760;37.726;2024-01-25T06:45:27;8.24;66.65
79026;DHT22;74892;44.760;37.726;2024-01-25T06:46:29;8.28;66.79
79026;DHT22;74892;44.760;37.726;2024-01-25T06:47:41;8.33;66.58
79026;DHT22;74892;44.760;37.726;2024-01-25T06:48:52;8.31;66.57
79026;DHT22;74892;44.760;37.726;2024-01-25T06:50:06;8.34;66.67
79026;DHT22;74892;44.760;37.726;2024-01-25T06:51:10;8.42;66.55
79026;DHT22;74892;44.760;37.726;2024-01-25T06:52:18;8.52;66.39
79026;DHT22;74892;44.760;37.726;2024-01-25T06:53:37;8.61;65.91
79026;DHT22;74892;44.760;37.726;2024-01-25T06:54:47;8.68;65.73
79026;DHT22;74892;44.760;37.726;2024-01-25T06:55:58;8.70;65.21
79026;DHT22;74892;44.760;37.726;2024-01-25T06:57:14;8.71;65.46
79026;DHT22;74892;44.760;37.726;2024-01-25T06:58:18;8.72;65.38
79026;DHT22;74892;44.760;37.726;2024-01-25T06:59:28;8.74;64.95
79026;DHT22;74892;44.760;37.726;2024-01-25T07:00:53;8.88;64.59
79026;DHT22;74892;44.760;37.726;2024-01-25T07:01:55;8.97;64.34
79026;DHT22;74892;44.760;37.726;2024-01-25T07:03:05;9.09;63.68
79026;DHT22;74892;44.760;37.726;2024-01-25T07:04:16;9.21;63.15
79026;DHT22;74892;44.760;37.726;2024-01-25T07:05:21;9.36;62.88
79026;DHT22;74892;44.760;37.726;2024-01-25T07:06:26;9.63;62.24
79026;DHT22;74892;44.760;37.726;2024-01-25T07:07:33;9.84;61.16
79026;DHT22;74892;44.760;37.726;2024-01-25T07:08:35;10.06;60.52
79026;DHT22;74892;44.760;37.726;2024-01-25T07:09:41;10.42;59.46
79026;DHT22;74892;44.760;37.726;2024-01-25T07:10:44;10.68;57.85
79026;DHT22;74892;44.760;37.726;2024-01-25T07:11:50;11.05;57.51
79026;DHT22;74892;44.760;37.726;2024-01-25T07:12:55;11.10;55.69
79026;DHT22;74892;44.760;37.726;2024-01-25T07:13:59;11.11;55.85
79026;DHT22;74892;44.760;37.726;2024-01-25T07:15:24;10.97;56.52
79026;DHT22;74892;44.760;37.726;2024-01-25T07:16:28;11.02;56.47
79026;DHT22;74892;44.760;37.726;2024-01-25T07:17:37;10.99;57.15
79026;DHT22;74892;44.760;37.726;2024-01-25T07:18:46;10.79;57.30
79026;DHT22;74892;44.760;37.726;2024-01-25T07:20:15;10.56;58.30
79026;DHT22;74892;44.760;37.726;2024-01-25T07:21:36;10.70;57.95
79026;DHT22;74892;44.760;37.726;2024-01-25T07:22:44;10.97;56.51
79026;DHT22;74892;44.760;37.726;2024-01-25T07:23:56;11.02;55.52
79026;DHT22;74892;44.760;37.726;2024-01-25T07:25:01;11.12;55.52
79026;DHT22;74892;44.760;37.726;2024-01-25T07:26:18;11.05;55.79
79026;DHT22;74892;44.760;37.726;2024-01-25T07:27:29;10.64;56.84
79026;DHT22;74892;44.760;37.726;2024-01-25T07:28:42;10.24;58.01
79026;DHT22;74892;44.760;37.726;2024-01-25T07:29:52;10.06;58.70
79026;DHT22;74892;44.760;37.726;2024-01-25T07:30:56;9.89;58.70
79026;DHT22;74892;44.760;37.726;2024-01-25T07:32:13;9.80;58.45
79026;DHT22;74892;44.760;37.726;2024-01-25T07:33:16;9.82;58.83
79026;DHT22;74892;44.760;37.726;2024-01-25T07:34:31;9.77;59.40
79026;DHT22;74892;44.760;37.726;2024-01-25T07:35:36;9.83;59.86
79026;DHT22;74892;44.760;37.726;2024-01-25T07:37:03;9.70;60.57
79026;DHT22;74892;44.760;37.726;2024-01-25T07:38:07;9.63;60.42
79026;DHT22;74892;44.760;37.726;2024-01-25T07:39:12;9.60;61.30
79026;DHT22;74892;44.760;37.726;2024-01-25T07:40:15;9.57;61.05
79026;DHT22;74892;44.760;37.726;2024-01-25T07:41:20;9.54;60.95
79026;DHT22;74892;44.760;37.726;2024-01-25T07:42:25;9.49;60.84
79026;DHT22;74892;44.760;37.726;2024-01-25T07:43:29;9.41;61.20
79026;DHT22;74892;44.760;37.726;2024-01-25T07:44:31;9.40;61.47
79026;DHT22;74892;44.760;37.726;2024-01-25T07:45:39;9.39;60.85
79026;DHT22;74892;44.760;37.726;2024-01-25T07:46:41;9.38;60.77
79026;DHT22;74892;44.760;37.726;2024-01-25T07:47:49;9.37;61.37
79026;DHT22;74892;44.760;37.726;2024-01-25T07:48:57;9.31;61.80
79026;DHT22;74892;44.760;37.726;2024-01-25T07:50:00;9.22;62.63
79026;DHT22;74892;44.760;37.726;2024-01-25T07:51:29;9.08;63.29
79026;DHT22;74892;44.760;37.726;2024-01-25T07:52:34;9.05;63.76
79026;DHT22;74892;44.760;37.726;2024-01-25T07:53:37;9.07;63.77
79026;DHT22;74892;44.760;37.726;2024-01-25T07:54:40;9.09;64.08
79026;DHT22;74892;44.760;37.726;2024-01-25T07:55:51;9.07;63.99
79026;DHT22;74892;44.760;37.726;2024-01-25T07:56:56;9.01;63.92
79026;DHT22;74892;44.760;37.726;2024-01-25T07:58:00;8.93;64.18
79026;DHT22;74892;44.760;37.726;2024-01-25T07:59:05;8.92;64.10
79026;DHT22;74892;44.760;37.726;2024-01-25T08:00:17;8.90;64.34
79026;DHT22;74892;44.760;37.726;2024-01-25T08:01:25;8.91;64.10
79026;DHT22;74892;44.760;37.726;2024-01-25T08:02:30;8.89;64.65
79026;DHT22;74892;44.760;37.726;2024-01-25T08:03:38;8.86;64.88
79026;DHT22;74892;44.760;37.726;2024-01-25T08:04:40;8.87;64.47
79026;DHT22;74892;44.760;37.726;2024-01-25T08:05:45;8.86;64.18
79026;DHT22;74892;44.760;37.726;2024-01-25T08:06:47;8.89;64.43
79026;DHT22;74892;44.760;37.726;2024-01-25T08:07:49;8.97;64.48
79026;DHT22;74892;44.760;37.726;2024-01-25T08:08:56;9.01;65.30
79026;DHT22;74892;44.760;37.726;2024-01-25T08:10:06;9.00;65.72
79026;DHT22;74892;44.760;37.726;2024-01-25T08:11:11;8.97;65.63
79026;DHT22;74892;44.760;37.726;2024-01-25T08:12:13;8.98;65.63
79026;DHT22;74892;44.760;37.726;2024-01-25T08:13:15;9.00;65.40
79026;DHT22;74892;44.760;37.726;2024-01-25T08:14:19;9.00;65.03
79026;DHT22;74892;44.760;37.726;2024-01-25T08:15:27;9.03;64.75
79026;DHT22;74892;44.760;37.726;2024-01-25T08:16:32;9.04;63.64
79026;DHT22;74892;44.760;37.726;2024-01-25T08:17:34;9.06;63.61
79026;DHT22;74892;44.760;37.726;2024-01-25T08:18:43;9.09;64.11
79026;DHT22;74892;44.760;37.726;2024-01-25T08:19:45;9.08;64.32
79026;DHT22;74892;44.760;37.726;2024-01-25T08:20:51;9.06;64.53
79026;DHT22;74892;44.760;37.726;2024-01-25T08:21:57;9.04;64.64
79026;DHT22;74892;44.760;37.726;2024-01-25T08:23:11;9.02;65.20
79026;DHT22;74892;44.760;37.726;2024-01-25T08:24:18;8.98;65.14
79026;DHT22;74892;44.760;37.726;2024-01-25T08:25:20;9.00;65.30
79026;DHT22;74892;44.760;37.726;2024-01-25T08:26:22;9.05;65.30
79026;DHT22;74892;44.760;37.726;2024-01-25T08:27:29;9.03;65.30
79026;DHT22;74892;44.760;37.726;2024-01-25T08:28:33;8.97;64.76
79026;DHT22;74892;44.760;37.726;2024-01-25T08:29:40;8.96;65.87
79026;DHT22;74892;44.760;37.726;2024-01-25T08:30:42;9.01;65.41
79026;DHT22;74892;44.760;37.726;2024-01-25T08:31:47;9.04;65.22
79026;DHT22;74892;44.760;37.726;2024-01-25T08:32:49;9.05;65.07
79026;DHT22;74892;44.760;37.726;2024-01-25T08:33:59;8.97;65.01
79026;DHT22;74892;44.760;37.726;2024-01-25T08:35:03;8.96;65.35
79026;DHT22;74892;44.760;37.726;2024-01-25T08:36:06;8.94;65.22
79026;DHT22;74892;44.760;37.726;2024-01-25T08:37:08;8.96;65.46
79026;DHT22;74892;44.760;37.726;2024-01-25T08:38:13;8.96;65.43
79026;DHT22;74892;44.760;37.726;2024-01-25T08:39:20;8.95;65.46
79026;DHT22;74892;44.760;37.726;2024-01-25T08:40:22;8.98;65.44
79026;DHT22;74892;44.760;37.726;2024-01-25T08:41:24;8.94;65.03
79026;DHT22;74892;44.760;37.726;2024-01-25T08:42:26;8.91;64.83
79026;DHT22;74892;44.760;37.726;2024-01-25T08:43:31;8.92;64.87
79026;DHT22;74892;44.760;37.726;2024-01-25T08:44:38;8.96;64.82
79026;DHT22;74892;44.760;37.726;2024-01-25T08:45:40;9.01;65.05
79026;DHT22;74892;44.760;37.726;2024-01-25T08:46:42;9.08;64.66
79026;DHT22;74892;44.760;37.726;2024-01-25T08:47:45;9.09;64.79
79026;DHT22;74892;44.760;37.726;2024-01-25T08:48:48;9.18;64.72
79026;DHT22;74892;44.760;37.726;2024-01-25T08:49:50;9.20;64.42
79026;DHT22;74892;44.760;37.726;2024-01-25T08:50:51;9.23;64.35
79026;DHT22;74892;44.760;37.726;2024-01-25T08:52:01;9.30;64.79
79026;DHT22;74892;44.760;37.726;2024-01-25T08:53:03;9.27;64.04
79026;DHT22;74892;44.760;37.726;2024-01-25T08:54:14;9.30;63.79
79026;DHT22;74892;44.760;37.726;2024-01-25T08:55:18;9.34;64.68
79026;DHT22;74892;44.760;37.726;2024-01-25T08:56:23;9.36;64.26
79026;DHT22;74892;44.760;37.726;2024-01-25T08:57:25;9.37;64.48
79026;DHT22;74892;44.760;37.726;2024-01-25T08:58:35;9.40;64.28
79026;DHT22;74892;44.760;37.726;2024-01-25T08:59:43;9.36;64.38
79026;DHT22;74892;44.760;37.726;2024-01-25T09:00:49;9.32;64.23
79026;DHT22;74892;44.760;37.726;2024-01-25T09:01:56;9.32;64.28
79026;DHT22;74892;44.760;37.726;2024-01-25T09:02:58;9.29;64.53
79026;DHT22;74892;44.760;37.726;2024-01-25T09:04:05;9.25;64.68
79026;DHT22;74892;44.760;37.726;2024-01-25T09:05:08;9.22;64.68
79026;DHT22;74892;44.760;37.726;2024-01-25T09:06:18;9.21;64.70
79026;DHT22;74892;44.760;37.726;2024-01-25T09:07:20;9.22;65.08
79026;DHT22;74892;44.760;37.726;2024-01-25T09:08:24;9.16;65.53
79026;DHT22;74892;44.760;37.726;2024-01-25T09:09:30;9.14;65.59
79026;DHT22;74892;44.760;37.726;2024-01-25T09:10:32;9.15;65.72
79026;DHT22;74892;44.760;37.726;2024-01-25T09:11:34;9.20;65.01
79026;DHT22;74892;44.760;37.726;2024-01-25T09:12:39;9.24;64.76
79026;DHT22;74892;44.760;37.726;2024-01-25T09:14:01;9.23;65.50
79026;DHT22;74892;44.760;37.726;2024-01-25T09:15:09;9.26;64.91
79026;DHT22;74892;44.760;37.726;2024-01-25T09:16:15;9.26;65.08
79026;DHT22;74892;44.760;37.726;2024-01-25T09:39:55;7.78;79.60
79026;DHT22;74892;44.760;37.726;2024-01-25T09:41:11;7.67;79.04
79026;DHT22;74892;44.760;37.726;2024-01-25T09:42:20;7.55;79.95
79026;DHT22;74892;44.760;37.726;2024-01-25T09:43:36;7.47;81.34
79026;DHT22;74892;44.760;37.726;2024-01-25T09:44:45;7.45;81.88
79026;DHT22;74892;44.760;37.726;2024-01-25T09:46:18;7.33;81.08
79026;DHT22;74892;44.760;37.726;2024-01-25T09:47:26;7.28;81.86
79026;DHT22;74892;44.760;37.726;2024-01-25T09:48:31;7.31;82.63
79026;DHT22;74892;44.760;37.726;2024-01-25T09:49:36;7.27;82.07
79026;DHT22;74892;44.760;37.726;2024-01-25T09:50:38;7.24;81.07
79026;DHT22;74892;44.760;37.726;2024-01-25T09:51:43;7.23;80.88
79026;DHT22;74892;44.760;37.726;2024-01-25T09:52:53;7.29;81.39
79026;DHT22;74892;44.760;37.726;2024-01-25T09:53:59;7.28;80.01
79026;DHT22;74892;44.760;37.726;2024-01-25T09:55:02;7.30;79.00
79026;DHT22;74892;44.760;37.726;2024-01-25T09:56:12;7.32;79.26
79026;DHT22;74892;44.760;37.726;2024-01-25T09:57:16;7.39;80.33
79026;DHT22;74892;44.760;37.726;2024-01-25T09:58:24;7.46;80.75
79026;DHT22;74892;44.760;37.726;2024-01-25T09:59:29;7.47;78.35
79026;DHT22;74892;44.760;37.726;2024-01-25T10:00:31;7.49;79.15
79026;DHT22;74892;44.760;37.726;2024-01-25T10:01:41;7.49;78.44
79026;DHT22;74892;44.760;37.726;2024-01-25T10:03:00;7.54;78.71
79026;DHT22;74892;44.760;37.726;2024-01-25T10:04:07;7.54;78.59
79026;DHT22;74892;44.760;37.726;2024-01-25T10:05:12;7.53;78.29
79026;DHT22;74892;44.760;37.726;2024-01-25T10:06:15;7.56;79.13
79026;DHT22;74892;44.760;37.726;2024-01-25T10:07:39;7.59;79.57
79026;DHT22;74892;44.760;37.726;2024-01-25T10:08:44;7.61;79.78
79026;DHT22;74892;44.760;37.726;2024-01-25T10:10:09;7.58;80.02
79026;DHT22;74892;44.760;37.726;2024-01-25T10:11:14;7.57;80.15
79026;DHT22;74892;44.760;37.726;2024-01-25T10:12:18;7.58;80.11
79026;DHT22;74892;44.760;37.726;2024-01-25T10:13:28;7.58;80.49
79026;DHT22;74892;44.760;37.726;2024-01-25T10:14:43;7.67;81.46
79026;DHT22;74892;44.760;37.726;2024-01-25T10:15:58;7.76;80.82
79026;DHT22;74892;44.760;37.726;2024-01-25T10:17:03;7.78;81.35
79026;DHT22;74892;44.760;37.726;2024-01-25T10:18:25;7.84;81.84
79026;DHT22;74892;44.760;37.726;2024-01-25T10:19:30;7.88;80.35
79026;DHT22;74892;44.760;37.726;2024-01-25T10:20:37;7.91;81.36
79026;DHT22;74892;44.760;37.726;2024-01-25T10:21:49;7.93;81.01
79026;DHT22;74892;44.760;37.726;2024-01-25T10:22:58;8.01;81.40
79026;DHT22;74892;44.760;37.726;2024-01-25T10:24:05;8.05;81.27
79026;DHT22;74892;44.760;37.726;2024-01-25T10:25:16;8.14;81.59
79026;DHT22;74892;44.760;37.726;2024-01-25T10:26:28;8.18;79.97
79026;DHT22;74892;44.760;37.726;2024-01-25T10:27:35;8.23;79.40
79026;DHT22;74892;44.760;37.726;2024-01-25T10:28:57;8.22;79.81
79026;DHT22;74892;44.760;37.726;2024-01-25T10:30:11;8.35;79.58
79026;DHT22;74892;44.760;37.726;2024-01-25T10:31:18;8.42;80.27
79026;DHT22;74892;44.760;37.726;2024-01-25T10:32:28;8.47;80.78
79026;DHT22;74892;44.760;37.726;2024-01-25T10:33:30;8.44;80.81
79026;DHT22;74892;44.760;37.726;2024-01-25T10:34:45;8.44;79.22
79026;DHT22;74892;44.760;37.726;2024-01-25T10:36:00;8.46;78.62
79026;DHT22;74892;44.760;37.726;2024-01-25T10:37:13;8.44;78.81
79026;DHT22;74892;44.760;37.726;2024-01-25T10:38:18;8.41;80.31
79026;DHT22;74892;44.760;37.726;2024-01-25T10:39:26;8.45;79.64
79026;DHT22;74892;44.760;37.726;2024-01-25T10:40:48;8.57;79.53
79026;DHT22;74892;44.760;37.726;2024-01-25T10:42:11;8.57;79.57
79026;DHT22;74892;44.760;37.726;2024-01-25T10:43:52;8.61;78.91
79026;DHT22;74892;44.760;37.726;2024-01-25T10:45:45;8.62;76.89
79026;DHT22;74892;44.760;37.726;2024-01-25T10:47:06;8.58;76.50
79026;DHT22;74892;44.760;37.726;2024-01-25T10:48:28;8.61;75.36
79026;DHT22;74892;44.760;37.726;2024-01-25T10:49:41;8.49;76.49
79026;DHT22;74892;44.760;37.726;2024-01-25T10:50:50;8.48;76.36
79026;DHT22;74892;44.760;37.726;2024-01-25T10:52:06;8.48;77.58
79026;DHT22;74892;44.760;37.726;2024-01-25T10:53:17;8.47;76.73
79026;DHT22;74892;44.760;37.726;2024-01-25T10:54:35;8.44;76.62
79026;DHT22;74892;44.760;37.726;2024-01-25T10:55:55;8.36;77.10
79026;DHT22;74892;44.760;37.726;2024-01-25T10:57:11;8.36;77.60
79026;DHT22;74892;44.760;37.726;2024-01-25T10:59:25;8.27;77.88
79026;DHT22;74892;44.760;37.726;2024-01-25T11:03:41;8.15;78.08
79026;DHT22;74892;44.760;37.726;2024-01-25T11:06:23;8.06;78.24
79026;DHT22;74892;44.760;37.726;2024-01-25T11:07:55;8.07;78.21
79026;DHT22;74892;44.760;37.726;2024-01-25T11:09:05;8.02;79.24
79026;DHT22;74892;44.760;37.726;2024-01-25T11:10:35;7.94;79.75
79026;DHT22;74892;44.760;37.726;2024-01-25T11:11:58;7.93;80.06
79026;DHT22;74892;44.760;37.726;2024-01-25T11:13:26;7.92;80.59
79026;DHT22;74892;44.760;37.726;2024-01-25T11:14:44;7.97;80.33
79026;DHT22;74892;44.760;37.726;2024-01-25T11:16:27;7.94;80.06
79026;DHT22;74892;44.760;37.726;2024-01-25T11:17:32;8.06;80.14
79026;DHT22;74892;44.760;37.726;2024-01-25T11:19:07;8.08;80.65
79026;DHT22;74892;44.760;37.726;2024-01-25T11:20:33;8.07;79.84
79026;DHT22;74892;44.760;37.726;2024-01-25T11:21:44;8.06;79.27
79026;DHT22;74892;44.760;37.726;2024-01-25T11:23:02;8.07;79.26
79026;DHT22;74892;44.760;37.726;2024-01-25T11:24:25;8.07;79.62
79026;DHT22;74892;44.760;37.726;2024-01-25T11:25:54;8.17;78.80
79026;DHT22;74892;44.760;37.726;2024-01-25T11:26:57;8.17;78.95
79026;DHT22;74892;44.760;37.726;2024-01-25T11:28:03;8.19;79.08
79026;DHT22;74892;44.760;37.726;2024-01-25T11:29:17;8.22;78.72
79026;DHT22;74892;44.760;37.726;2024-01-25T11:30:19;8.22;79.66
79026;DHT22;74892;44.760;37.726;2024-01-25T11:31:30;8.21;79.85